Time;durP1;ratioP1;P1;durP2;ratioP2;P2;SDS_P1;SDS_P2;PMS_P1;PMS_P2;Temp;Humidity;BMP_temperature;BMP_pressure;BME280_temperature;BME280_humidity;BME280_pressure;Samples;Min_cycle;Max_cycle;Signal;HPM_P1;HPM_P2
2021/05/10 00:00:29;;;;;;;5.47;2.00;;;;;;;;;;1488473;39;20028;-65
2021/05/10 00:01:30;;;;;;;4.38;1.95;;;;;;;;;;1488490;39;20302;-65
2021/05/10 00:02:31;;;;;;;5.32;2.13;;;;;;;;;;1488365;39;20028;-65
2021/05/10 00:03:32;;;;;;;4.40;2.13;;;;;;;;;;1488468;39;20375;-65
2021/05/10 00:04:34;;;;;;;2.88;1.90;;;;;;;;;;1488398;39;20036;-65
2021/05/10 00:05:34;;;;;;;3.75;2.13;;;;;;;;;;1488553;39;20036;-65
2021/05/10 00:06:36;;;;;;;5.30;2.15;;;;;;;;;;1488523;39;20268;-65
2021/05/10 00:07:36;;;;;;;2.92;2.00;;;;;;;;;;1488535;39;20036;-65
2021/05/10 00:08:38;;;;;;;3.88;1.90;;;;;;;;;;1488378;39;20406;-64
2021/05/10 00:09:39;;;;;;;3.50;1.70;;;;;;;;;;1488336;39;20036;-65
2021/05/10 00:10:41;;;;;;;3.33;2.00;;;;;;;;;;1488545;39;20035;-65
2021/05/10 00:11:42;;;;;;;4.60;2.10;;;;;;;;;;1489038;39;20033;-65
2021/05/10 00:12:43;;;;;;;3.58;1.83;;;;;;;;;;1489030;39;20147;-65
2021/05/10 00:13:46;;;;;;;3.28;1.83;;;;;;;;;;1489109;39;20028;-65
2021/05/10 00:14:48;;;;;;;3.50;1.92;;;;;;;;;;1489029;39;20396;-65
2021/05/10 00:15:50;;;;;;;3.55;1.98;;;;;;;;;;1488982;39;20024;-65
2021/05/10 00:16:51;;;;;;;3.80;2.10;;;;;;;;;;1488989;39;20306;-65
2021/05/10 00:17:53;;;;;;;3.28;2.25;;;;;;;;;;1489246;39;20039;-65
2021/05/10 00:18:54;;;;;;;3.95;2.13;;;;;;;;;;1489179;39;20032;-65
2021/05/10 00:19:55;;;;;;;3.03;1.70;;;;;;;;;;1489169;39;20031;-65
2021/05/10 00:20:56;;;;;;;2.85;1.77;;;;;;;;;;1489195;39;20035;-65
2021/05/10 00:21:58;;;;;;;3.85;2.05;;;;;;;;;;1489083;39;20114;-65
2021/05/10 00:22:59;;;;;;;2.95;2.10;;;;;;;;;;1488979;39;20028;-65
2021/05/10 00:24:01;;;;;;;3.95;1.90;;;;;;;;;;1489175;39;20044;-65
2021/05/10 00:25:01;;;;;;;4.20;1.88;;;;;;;;;;1488965;39;20028;-65
2021/05/10 00:26:03;;;;;;;2.83;1.85;;;;;;;;;;1489056;39;20075;-65
2021/05/10 00:27:04;;;;;;;3.47;2.08;;;;;;;;;;1489054;39;20291;-65
2021/05/10 00:28:07;;;;;;;3.40;1.90;;;;;;;;;;1489040;39;20380;-65
2021/05/10 00:29:07;;;;;;;4.18;1.98;;;;;;;;;;1488919;39;20028;-65
2021/05/10 00:30:12;;;;;;;4.18;2.00;;;;;;;;;;1489156;39;20083;-64
2021/05/10 00:31:13;;;;;;;3.58;1.88;;;;;;;;;;1489108;39;20066;-65
2021/05/10 00:32:14;;;;;;;3.42;2.10;;;;;;;;;;1488938;39;20039;-64
2021/05/10 00:33:15;;;;;;;4.13;2.00;;;;;;;;;;1489125;39;20039;-65
2021/05/10 00:34:16;;;;;;;4.80;1.90;;;;;;;;;;1488917;39;20032;-65
2021/05/10 00:35:18;;;;;;;3.35;1.98;;;;;;;;;;1489025;39;20064;-65
2021/05/10 00:36:20;;;;;;;4.05;2.00;;;;;;;;;;1489006;39;20033;-65
2021/05/10 00:37:21;;;;;;;3.47;1.80;;;;;;;;;;1489137;39;20039;-64
2021/05/10 00:38:22;;;;;;;7.75;1.95;;;;;;;;;;1489123;39;20035;-65
2021/05/10 00:39:24;;;;;;;4.13;2.25;;;;;;;;;;1489032;39;20032;-65
2021/05/10 00:40:28;;;;;;;5.95;2.30;;;;;;;;;;1488900;39;20028;-65
2021/05/10 00:41:29;;;;;;;3.95;2.30;;;;;;;;;;1489048;39;20036;-64
2021/05/10 00:42:30;;;;;;;6.63;2.08;;;;;;;;;;1489012;39;20362;-64
2021/05/10 00:43:31;;;;;;;4.13;2.10;;;;;;;;;;1489094;39;20028;-65
2021/05/10 00:44:32;;;;;;;7.85;2.55;;;;;;;;;;1489069;39;20113;-65
2021/05/10 00:45:34;;;;;;;4.25;1.90;;;;;;;;;;1488951;39;20307;-65
2021/05/10 00:46:37;;;;;;;3.90;2.13;;;;;;;;;;1489133;39;20113;-65
2021/05/10 00:47:38;;;;;;;4.72;2.20;;;;;;;;;;1489079;39;20028;-65
2021/05/10 00:48:39;;;;;;;4.15;1.95;;;;;;;;;;1489107;39;20040;-65
2021/05/10 00:49:40;;;;;;;4.03;2.15;;;;;;;;;;1488875;39;20021;-64
2021/05/10 00:50:41;;;;;;;3.88;1.92;;;;;;;;;;1489106;39;20032;-64
2021/05/10 00:51:42;;;;;;;3.83;2.10;;;;;;;;;;1488805;39;20032;-64
2021/05/10 00:52:43;;;;;;;4.13;2.38;;;;;;;;;;1489105;39;20029;-65
2021/05/10 00:53:44;;;;;;;4.22;2.00;;;;;;;;;;1489093;39;20067;-65
2021/05/10 00:54:46;;;;;;;5.57;2.10;;;;;;;;;;1489144;39;20024;-65
2021/05/10 00:55:47;;;;;;;4.78;1.90;;;;;;;;;;1489059;39;20032;-64
2021/05/10 00:56:48;;;;;;;3.65;1.75;;;;;;;;;;1489186;39;20028;-65
2021/05/10 00:57:52;;;;;;;4.90;2.20;;;;;;;;;;1489052;39;20032;-64
2021/05/10 00:58:52;;;;;;;3.42;2.22;;;;;;;;;;1488966;39;20395;-65
2021/05/10 00:59:54;;;;;;;3.85;2.15;;;;;;;;;;1488890;39;20036;-65
2021/05/10 01:00:56;;;;;;;3.60;2.25;;;;;;;;;;1489011;39;20032;-64
2021/05/10 01:01:57;;;;;;;4.32;2.05;;;;;;;;;;1488890;39;20032;-64
2021/05/10 01:02:59;;;;;;;4.63;2.10;;;;;;;;;;1489168;39;20032;-65
2021/05/10 01:04:00;;;;;;;3.88;2.28;;;;;;;;;;1488892;39;20043;-65
2021/05/10 01:05:02;;;;;;;5.35;2.22;;;;;;;;;;1489041;39;20033;-64
2021/05/10 01:06:04;;;;;;;3.17;2.20;;;;;;;;;;1489080;39;20033;-65
2021/05/10 01:07:05;;;;;;;2.65;1.80;;;;;;;;;;1488873;39;20036;-65
2021/05/10 01:08:07;;;;;;;4.88;2.10;;;;;;;;;;1489061;39;20028;-65
2021/05/10 01:09:08;;;;;;;3.03;2.10;;;;;;;;;;1489046;39;20044;-65
2021/05/10 01:10:12;;;;;;;4.90;1.98;;;;;;;;;;1489098;39;20043;-65
2021/05/10 01:11:12;;;;;;;5.55;1.98;;;;;;;;;;1488997;39;20035;-65
2021/05/10 01:12:14;;;;;;;5.63;2.15;;;;;;;;;;1489034;39;20028;-64
2021/05/10 01:13:15;;;;;;;3.83;2.30;;;;;;;;;;1489023;39;20025;-65
2021/05/10 01:14:17;;;;;;;3.25;2.22;;;;;;;;;;1489032;39;20028;-65
2021/05/10 01:15:19;;;;;;;3.78;2.30;;;;;;;;;;1489014;39;20032;-65
2021/05/10 01:16:22;;;;;;;2.78;2.10;;;;;;;;;;1489022;39;20028;-64
2021/05/10 01:17:23;;;;;;;4.40;2.05;;;;;;;;;;1488928;39;20040;-65
2021/05/10 01:18:24;;;;;;;4.13;2.28;;;;;;;;;;1488848;39;20024;-65
2021/05/10 01:19:26;;;;;;;3.58;2.10;;;;;;;;;;1489016;39;20032;-65
2021/05/10 01:20:28;;;;;;;3.92;2.35;;;;;;;;;;1488777;39;20406;-65
2021/05/10 01:21:30;;;;;;;4.05;2.05;;;;;;;;;;1488906;39;20028;-65
2021/05/10 01:22:42;;;;;;;5.07;2.17;;;;;;;;;;1488595;39;20032;-65
2021/05/10 01:23:44;;;;;;;7.22;2.30;;;;;;;;;;1488840;39;20029;-64
2021/05/10 01:24:46;;;;;;;3.92;2.38;;;;;;;;;;1489010;39;20024;-65
2021/05/10 01:25:49;;;;;;;4.07;2.22;;;;;;;;;;1488825;39;20033;-65
2021/05/10 01:26:51;;;;;;;3.28;2.15;;;;;;;;;;1488961;39;20032;-64
2021/05/10 01:27:53;;;;;;;5.25;2.35;;;;;;;;;;1488828;39;20402;-65
2021/05/10 01:28:55;;;;;;;5.03;2.00;;;;;;;;;;1488846;39;20028;-65
2021/05/10 01:29:56;;;;;;;4.50;2.10;;;;;;;;;;1488829;39;20036;-65
2021/05/10 01:30:57;;;;;;;3.42;2.20;;;;;;;;;;1488914;39;20036;-65
2021/05/10 01:31:58;;;;;;;5.65;2.28;;;;;;;;;;1488758;39;20155;-65
2021/05/10 01:33:00;;;;;;;5.07;2.20;;;;;;;;;;1488934;39;20113;-65
2021/05/10 01:34:02;;;;;;;3.63;2.10;;;;;;;;;;1488871;39;20370;-64
2021/05/10 01:35:06;;;;;;;4.32;2.10;;;;;;;;;;1488829;39;20420;-64
2021/05/10 01:36:07;;;;;;;5.30;2.17;;;;;;;;;;1488834;39;20316;-65
2021/05/10 01:37:08;;;;;;;2.75;2.22;;;;;;;;;;1488812;39;20388;-65
2021/05/10 01:38:10;;;;;;;4.47;2.17;;;;;;;;;;1488838;39;20265;-64
2021/05/10 01:39:11;;;;;;;7.53;2.13;;;;;;;;;;1488992;39;20036;-64
2021/05/10 01:40:14;;;;;;;5.85;2.25;;;;;;;;;;1488933;39;20035;-65
2021/05/10 01:41:15;;;;;;;5.00;2.33;;;;;;;;;;1488715;39;20304;-64
2021/05/10 01:42:16;;;;;;;4.63;2.13;;;;;;;;;;1488767;39;20316;-64
2021/05/10 01:43:18;;;;;;;3.25;2.15;;;;;;;;;;1488988;39;20117;-64
2021/05/10 01:44:19;;;;;;;4.82;2.63;;;;;;;;;;1488945;39;20033;-65
2021/05/10 01:45:20;;;;;;;3.83;2.35;;;;;;;;;;1488770;39;20277;-64
2021/05/10 01:46:21;;;;;;;4.47;2.45;;;;;;;;;;1488764;39;20032;-64
2021/05/10 01:47:22;;;;;;;3.83;2.55;;;;;;;;;;1488797;39;20028;-64
2021/05/10 01:48:23;;;;;;;4.65;2.17;;;;;;;;;;1488784;39;20028;-65
2021/05/10 01:49:25;;;;;;;4.80;2.45;;;;;;;;;;1488935;39;20044;-64
2021/05/10 01:50:26;;;;;;;3.60;2.30;;;;;;;;;;1488784;39;20024;-64
2021/05/10 01:51:27;;;;;;;3.28;2.40;;;;;;;;;;1488694;39;20492;-64
2021/05/10 01:52:28;;;;;;;5.38;2.28;;;;;;;;;;1488960;39;20035;-64
2021/05/10 01:53:30;;;;;;;4.25;2.40;;;;;;;;;;1488818;39;20287;-64
2021/05/10 01:54:31;;;;;;;5.53;2.47;;;;;;;;;;1488795;39;20024;-64
2021/05/10 01:55:32;;;;;;;5.13;2.50;;;;;;;;;;1488926;39;20391;-64
2021/05/10 01:56:35;;;;;;;5.03;2.53;;;;;;;;;;1488721;39;20110;-65
2021/05/10 01:57:37;;;;;;;3.30;2.17;;;;;;;;;;1488795;39;20029;-64
2021/05/10 01:58:38;;;;;;;3.42;2.00;;;;;;;;;;1488748;39;20403;-64
2021/05/10 01:59:40;;;;;;;3.97;2.20;;;;;;;;;;1488695;39;20029;-65
2021/05/10 02:00:42;;;;;;;4.82;2.05;;;;;;;;;;1488895;39;20036;-64
2021/05/10 02:01:43;;;;;;;4.22;2.17;;;;;;;;;;1488662;39;20032;-65
2021/05/10 02:02:44;;;;;;;3.95;2.30;;;;;;;;;;1488769;39;20407;-65
2021/05/10 02:03:45;;;;;;;2.97;2.25;;;;;;;;;;1488917;39;20035;-64
2021/05/10 02:05:15;;;;;;;3.50;2.28;;;;;;;;;;1488795;39;20372;-64
2021/05/10 02:06:16;;;;;;;3.38;2.45;;;;;;;;;;1488977;39;20032;-64
2021/05/10 02:07:17;;;;;;;5.05;2.38;;;;;;;;;;1488701;39;20395;-64
2021/05/10 02:08:19;;;;;;;3.83;2.10;;;;;;;;;;1488737;39;20032;-64
2021/05/10 02:09:23;;;;;;;3.67;2.28;;;;;;;;;;1488908;39;20032;-64
2021/05/10 02:10:27;;;;;;;4.82;2.60;;;;;;;;;;1488933;39;20029;-64
2021/05/10 02:11:27;;;;;;;5.32;2.50;;;;;;;;;;1488858;39;20054;-64
2021/05/10 02:12:29;;;;;;;2.95;2.10;;;;;;;;;;1488881;39;20414;-64
2021/05/10 02:13:30;;;;;;;3.75;2.33;;;;;;;;;;1488945;39;20041;-65
2021/05/10 02:14:31;;;;;;;4.30;2.40;;;;;;;;;;1488741;39;20032;-64
2021/05/10 02:15:34;;;;;;;4.53;2.13;;;;;;;;;;1488783;39;20390;-64
2021/05/10 02:16:35;;;;;;;5.75;2.63;;;;;;;;;;1488978;39;20031;-65
2021/05/10 02:17:36;;;;;;;3.85;2.40;;;;;;;;;;1488701;39;20040;-65
2021/05/10 02:18:38;;;;;;;4.60;2.42;;;;;;;;;;1488858;39;20068;-64
2021/05/10 02:19:38;;;;;;;3.85;2.13;;;;;;;;;;1488727;39;20387;-64
2021/05/10 02:20:41;;;;;;;6.05;2.10;;;;;;;;;;1488788;39;20033;-65
2021/05/10 02:21:42;;;;;;;5.93;2.60;;;;;;;;;;1488657;39;20055;-65
2021/05/10 02:22:50;;;;;;;5.22;2.47;;;;;;;;;;1488771;39;20028;-64
2021/05/10 02:23:52;;;;;;;3.92;2.10;;;;;;;;;;1488692;39;20421;-65
2021/05/10 02:24:53;;;;;;;3.00;2.05;;;;;;;;;;1488872;39;20024;-65
2021/05/10 02:25:56;;;;;;;4.28;2.30;;;;;;;;;;1488862;39;20024;-64
2021/05/10 02:26:57;;;;;;;4.95;2.47;;;;;;;;;;1488815;39;20028;-64
2021/05/10 02:27:59;;;;;;;4.20;2.47;;;;;;;;;;1488624;39;20039;-64
2021/05/10 02:29:01;;;;;;;4.00;2.33;;;;;;;;;;1488658;39;20129;-64
2021/05/10 02:30:04;;;;;;;4.18;2.10;;;;;;;;;;1488850;39;20028;-64
2021/05/10 02:31:05;;;;;;;3.88;2.22;;;;;;;;;;1488709;39;20028;-64
2021/05/10 02:32:06;;;;;;;3.85;2.60;;;;;;;;;;1488753;39;20032;-64
2021/05/10 02:33:09;;;;;;;4.32;2.17;;;;;;;;;;1488612;39;20024;-64
2021/05/10 02:34:10;;;;;;;5.32;2.47;;;;;;;;;;1488366;39;20076;-64
2021/05/10 02:35:12;;;;;;;4.65;2.17;;;;;;;;;;1488627;39;20029;-64
2021/05/10 02:36:14;;;;;;;5.38;2.20;;;;;;;;;;1488833;39;20032;-64
2021/05/10 02:37:16;;;;;;;4.50;2.83;;;;;;;;;;1488874;39;20028;-64
2021/05/10 02:38:18;;;;;;;4.93;2.72;;;;;;;;;;1488800;39;20032;-64
2021/05/10 02:39:19;;;;;;;4.30;2.60;;;;;;;;;;1488783;39;20036;-65
2021/05/10 02:40:21;;;;;;;4.30;2.28;;;;;;;;;;1488542;39;20370;-64
2021/05/10 02:41:22;;;;;;;4.35;2.38;;;;;;;;;;1488762;39;20024;-64
2021/05/10 02:42:23;;;;;;;5.75;2.60;;;;;;;;;;1488766;39;20315;-65
2021/05/10 02:43:26;;;;;;;7.50;2.58;;;;;;;;;;1488899;39;20032;-64
2021/05/10 02:44:27;;;;;;;4.97;2.25;;;;;;;;;;1488623;39;20299;-64
2021/05/10 02:45:28;;;;;;;5.32;2.70;;;;;;;;;;1488606;39;20039;-65
2021/05/10 02:46:29;;;;;;;4.75;2.50;;;;;;;;;;1488674;39;20042;-65
2021/05/10 02:47:30;;;;;;;5.45;2.70;;;;;;;;;;1488672;39;20028;-64
2021/05/10 02:48:31;;;;;;;5.65;2.50;;;;;;;;;;1488773;39;20035;-64
2021/05/10 02:49:32;;;;;;;4.18;2.40;;;;;;;;;;1488810;39;20029;-64
2021/05/10 02:50:33;;;;;;;4.78;2.30;;;;;;;;;;1488633;39;20020;-64
2021/05/10 02:51:54;;;;;;;3.90;2.22;;;;;;;;;;1488191;39;20028;-64
2021/05/10 02:53:01;;;;;;;4.30;2.20;;;;;;;;;;1488327;40;20329;-64
2021/05/10 02:54:03;;;;;;;4.05;2.13;;;;;;;;;;1488583;39;20028;-64
2021/05/10 02:55:06;;;;;;;3.63;2.42;;;;;;;;;;1488669;39;20028;-65
2021/05/10 02:56:09;;;;;;;4.35;2.50;;;;;;;;;;1488554;39;20032;-64
2021/05/10 02:57:10;;;;;;;5.60;2.42;;;;;;;;;;1488551;39;20303;-64
2021/05/10 02:58:11;;;;;;;3.33;2.55;;;;;;;;;;1488752;39;20044;-65
2021/05/10 02:59:12;;;;;;;4.38;2.45;;;;;;;;;;1488563;39;20041;-64
2021/05/10 03:00:16;;;;;;;6.63;2.50;;;;;;;;;;1488544;39;20395;-64
2021/05/10 03:01:17;;;;;;;4.38;2.35;;;;;;;;;;1488725;39;20039;-65
2021/05/10 03:02:20;;;;;;;5.40;2.50;;;;;;;;;;1488556;39;20073;-64
2021/05/10 03:03:21;;;;;;;5.95;2.42;;;;;;;;;;1488565;39;20377;-64
2021/05/10 03:04:22;;;;;;;3.60;2.35;;;;;;;;;;1488773;39;20117;-65
2021/05/10 03:05:25;;;;;;;6.40;2.67;;;;;;;;;;1488523;39;20024;-64
2021/05/10 03:06:26;;;;;;;5.13;2.60;;;;;;;;;;1488570;39;20277;-64
2021/05/10 03:07:27;;;;;;;5.20;2.28;;;;;;;;;;1488735;39;20032;-64
2021/05/10 03:08:28;;;;;;;4.25;2.28;;;;;;;;;;1488722;39;20045;-64
2021/05/10 03:09:31;;;;;;;3.40;2.40;;;;;;;;;;1488549;39;20303;-64
2021/05/10 03:10:33;;;;;;;4.85;2.40;;;;;;;;;;1488524;39;20033;-64
2021/05/10 03:11:35;;;;;;;4.97;2.33;;;;;;;;;;1488559;39;20036;-64
2021/05/10 03:12:37;;;;;;;3.33;2.38;;;;;;;;;;1488681;39;20046;-64
2021/05/10 03:13:38;;;;;;;4.63;2.53;;;;;;;;;;1488476;39;20312;-64
2021/05/10 03:14:39;;;;;;;4.40;2.30;;;;;;;;;;1488500;39;20039;-64
2021/05/10 03:15:41;;;;;;;5.40;2.40;;;;;;;;;;1488546;39;20035;-64
2021/05/10 03:16:42;;;;;;;5.47;2.63;;;;;;;;;;1488484;39;20025;-65
2021/05/10 03:17:44;;;;;;;4.47;2.10;;;;;;;;;;1488661;39;20101;-64
2021/05/10 03:18:45;;;;;;;4.18;2.72;;;;;;;;;;1488671;39;20033;-65
2021/05/10 03:19:46;;;;;;;4.88;2.33;;;;;;;;;;1488483;39;20388;-64
2021/05/10 03:20:47;;;;;;;5.22;2.33;;;;;;;;;;1488649;39;20113;-64
2021/05/10 03:21:48;;;;;;;2.63;2.28;;;;;;;;;;1488542;39;20149;-65
2021/05/10 03:22:52;;;;;;;5.95;2.20;;;;;;;;;;1488524;39;20036;-64
2021/05/10 03:23:52;;;;;;;6.10;2.42;;;;;;;;;;1488707;39;20028;-64
2021/05/10 03:24:55;;;;;;;6.68;2.13;;;;;;;;;;1488470;39;20060;-64
2021/05/10 03:25:55;;;;;;;4.18;2.33;;;;;;;;;;1488479;39;20032;-64
2021/05/10 03:26:57;;;;;;;4.38;2.30;;;;;;;;;;1488670;39;20032;-64
2021/05/10 03:27:58;;;;;;;6.75;2.55;;;;;;;;;;1488535;39;20276;-64
2021/05/10 03:29:00;;;;;;;5.22;2.22;;;;;;;;;;1488669;39;20065;-64
2021/05/10 03:30:01;;;;;;;4.38;2.55;;;;;;;;;;1488455;39;20094;-64
2021/05/10 03:31:02;;;;;;;4.43;2.10;;;;;;;;;;1488681;39;20024;-64
2021/05/10 03:32:04;;;;;;;5.82;2.53;;;;;;;;;;1488644;39;20048;-64
2021/05/10 03:33:07;;;;;;;3.88;2.00;;;;;;;;;;1488658;39;20024;-64
2021/05/10 03:34:08;;;;;;;4.68;2.45;;;;;;;;;;1488402;39;20299;-65
2021/05/10 03:35:11;;;;;;;4.18;2.58;;;;;;;;;;1488625;39;20033;-64
2021/05/10 03:36:12;;;;;;;4.57;2.40;;;;;;;;;;1488445;39;20388;-64
2021/05/10 03:37:13;;;;;;;4.03;1.88;;;;;;;;;;1488433;39;20480;-64
2021/05/10 03:38:14;;;;;;;4.65;2.22;;;;;;;;;;1488498;39;20040;-64
2021/05/10 03:39:15;;;;;;;3.50;2.30;;;;;;;;;;1488440;39;20388;-64
2021/05/10 03:40:17;;;;;;;3.80;2.20;;;;;;;;;;1488594;39;20036;-64
2021/05/10 03:41:18;;;;;;;2.85;2.00;;;;;;;;;;1488435;39;20388;-65
2021/05/10 03:42:21;;;;;;;4.97;2.13;;;;;;;;;;1488411;39;20024;-65
2021/05/10 03:43:21;;;;;;;3.63;2.20;;;;;;;;;;1488416;39;20029;-64
2021/05/10 03:44:23;;;;;;;3.47;2.60;;;;;;;;;;1488479;39;20384;-64
2021/05/10 03:45:24;;;;;;;5.22;2.40;;;;;;;;;;1488440;39;20035;-64
2021/05/10 03:46:26;;;;;;;3.00;2.00;;;;;;;;;;1489156;39;20028;-64
2021/05/10 03:47:34;;;;;;;2.50;1.90;;;;;;;;;;1489277;39;20032;-65
2021/05/10 03:48:36;;;;;;;4.72;2.00;;;;;;;;;;1489102;39;20036;-64
2021/05/10 03:49:36;;;;;;;3.30;2.20;;;;;;;;;;1489298;39;20121;-64
2021/05/10 03:50:38;;;;;;;5.20;2.45;;;;;;;;;;1489037;39;20040;-64
2021/05/10 03:51:39;;;;;;;3.50;1.98;;;;;;;;;;1489019;39;20032;-64
2021/05/10 03:52:41;;;;;;;3.13;2.17;;;;;;;;;;1489199;39;20028;-64
2021/05/10 03:53:42;;;;;;;5.25;2.50;;;;;;;;;;1489243;39;20032;-65
2021/05/10 03:54:43;;;;;;;4.15;2.30;;;;;;;;;;1489027;39;20044;-64
2021/05/10 03:55:44;;;;;;;6.85;2.65;;;;;;;;;;1489115;39;20403;-64
2021/05/10 03:56:45;;;;;;;4.97;2.53;;;;;;;;;;1489257;39;20028;-64
2021/05/10 03:57:47;;;;;;;5.25;2.60;;;;;;;;;;1489060;39;20025;-64
2021/05/10 03:58:48;;;;;;;4.47;2.40;;;;;;;;;;1489054;39;20028;-64
2021/05/10 03:59:49;;;;;;;3.78;2.63;;;;;;;;;;1489209;39;20029;-65
2021/05/10 04:00:52;;;;;;;3.70;2.30;;;;;;;;;;1489244;39;20033;-65
2021/05/10 04:01:52;;;;;;;3.97;2.30;;;;;;;;;;1488989;39;20036;-64
2021/05/10 04:02:54;;;;;;;5.57;2.60;;;;;;;;;;1489033;39;20040;-64
2021/05/10 04:04:02;;;;;;;6.82;2.47;;;;;;;;;;1489186;39;20064;-64
2021/05/10 04:05:11;;;;;;;4.13;2.42;;;;;;;;;;1489052;39;20068;-64
2021/05/10 04:06:24;;;;;;;3.20;2.28;;;;;;;;;;1489064;39;20093;-64
2021/05/10 04:07:40;;;;;;;3.13;2.30;;;;;;;;;;1489089;39;20028;-64
2021/05/10 04:09:07;;;;;;;4.40;2.38;;;;;;;;;;1489290;39;20036;-65
2021/05/10 04:14:20;;;;;;;3.85;2.53;;;;;;;;;;1489034;39;20032;-64
2021/05/10 04:15:21;;;;;;;6.32;2.40;;;;;;;;;;1488990;39;20044;-64
2021/05/10 04:16:23;;;;;;;5.22;2.25;;;;;;;;;;1489174;39;20115;-64
2021/05/10 04:17:24;;;;;;;3.83;2.15;;;;;;;;;;1488978;39;20477;-64
2021/05/10 04:18:25;;;;;;;3.97;2.25;;;;;;;;;;1489171;39;20036;-64
2021/05/10 04:19:26;;;;;;;4.68;2.60;;;;;;;;;;1489195;39;20106;-64
2021/05/10 04:20:27;;;;;;;5.25;2.55;;;;;;;;;;1489049;39;20454;-64
2021/05/10 04:21:28;;;;;;;7.50;2.55;;;;;;;;;;1489041;39;20055;-64
2021/05/10 04:22:29;;;;;;;3.53;2.55;;;;;;;;;;1489108;39;20025;-64
2021/05/10 04:23:30;;;;;;;4.18;2.65;;;;;;;;;;1489124;39;20028;-64
2021/05/10 04:24:31;;;;;;;5.65;2.75;;;;;;;;;;1489029;39;20040;-64
2021/05/10 04:25:33;;;;;;;4.65;2.63;;;;;;;;;;1489130;39;20090;-64
2021/05/10 04:26:34;;;;;;;6.95;3.45;;;;;;;;;;1489075;39;20388;-64
2021/05/10 04:27:35;;;;;;;5.70;3.03;;;;;;;;;;1489177;39;20070;-65
2021/05/10 04:28:38;;;;;;;4.18;2.83;;;;;;;;;;1489175;39;20330;-64
2021/05/10 04:29:39;;;;;;;4.53;3.10;;;;;;;;;;1489055;39;20035;-64
2021/05/10 04:30:41;;;;;;;7.15;2.70;;;;;;;;;;1488962;39;20064;-64
2021/05/10 04:31:42;;;;;;;7.47;2.90;;;;;;;;;;1489045;39;20060;-64
2021/05/10 04:32:43;;;;;;;4.82;2.72;;;;;;;;;;1489011;39;20299;-65
2021/05/10 04:33:44;;;;;;;4.15;2.60;;;;;;;;;;1488994;39;20030;-64
2021/05/10 04:34:48;;;;;;;6.43;2.97;;;;;;;;;;1489007;39;20039;-64
2021/05/10 04:35:49;;;;;;;6.40;2.67;;;;;;;;;;1489152;39;20069;-64
2021/05/10 04:36:50;;;;;;;3.42;2.55;;;;;;;;;;1489006;39;20055;-64
2021/05/10 04:37:51;;;;;;;4.50;2.67;;;;;;;;;;1489115;39;20039;-64
2021/05/10 04:38:52;;;;;;;5.20;3.13;;;;;;;;;;1489128;39;20051;-64
2021/05/10 04:39:53;;;;;;;4.75;3.05;;;;;;;;;;1488933;39;20391;-64
2021/05/10 04:40:55;;;;;;;5.10;2.88;;;;;;;;;;1488986;39;20039;-64
2021/05/10 04:41:56;;;;;;;8.55;2.97;;;;;;;;;;1489055;39;20043;-64
2021/05/10 04:42:57;;;;;;;4.32;2.60;;;;;;;;;;1489126;39;20328;-64
2021/05/10 04:43:59;;;;;;;5.00;2.65;;;;;;;;;;1489080;39;20043;-64
2021/05/10 04:45:01;;;;;;;7.63;2.75;;;;;;;;;;1489116;39;20032;-64
2021/05/10 04:46:02;;;;;;;5.43;3.05;;;;;;;;;;1489085;39;20028;-64
2021/05/10 04:47:03;;;;;;;4.68;2.80;;;;;;;;;;1488923;39;20040;-65
2021/05/10 04:48:05;;;;;;;5.93;2.88;;;;;;;;;;1489093;39;20032;-64
2021/05/10 04:49:06;;;;;;;6.50;2.97;;;;;;;;;;1488935;39;20032;-64
2021/05/10 04:50:10;;;;;;;5.07;3.00;;;;;;;;;;1489109;39;20032;-65
2021/05/10 04:51:10;;;;;;;6.03;2.92;;;;;;;;;;1488865;39;20016;-64
2021/05/10 04:52:12;;;;;;;4.47;2.85;;;;;;;;;;1488935;39;20113;-64
2021/05/10 04:53:14;;;;;;;4.13;2.58;;;;;;;;;;1489048;39;20055;-64
2021/05/10 04:54:15;;;;;;;6.30;2.83;;;;;;;;;;1488893;39;20328;-64
2021/05/10 04:55:16;;;;;;;4.97;2.80;;;;;;;;;;1489108;39;20113;-64
2021/05/10 04:56:17;;;;;;;5.20;2.53;;;;;;;;;;1488914;39;20068;-64
2021/05/10 04:57:18;;;;;;;6.13;2.90;;;;;;;;;;1488982;39;20028;-64
2021/05/10 04:58:19;;;;;;;5.50;2.72;;;;;;;;;;1489060;39;20113;-64
2021/05/10 04:59:21;;;;;;;3.95;2.78;;;;;;;;;;1489003;39;20036;-64
2021/05/10 05:00:23;;;;;;;3.97;2.63;;;;;;;;;;1488860;39;20032;-64
2021/05/10 05:01:24;;;;;;;5.60;2.60;;;;;;;;;;1488829;39;20346;-64
2021/05/10 05:02:25;;;;;;;6.68;3.25;;;;;;;;;;1488967;39;20054;-64
2021/05/10 05:03:26;;;;;;;5.40;2.70;;;;;;;;;;1489066;39;20036;-64
2021/05/10 05:04:27;;;;;;;5.32;3.00;;;;;;;;;;1489087;39;20303;-64
2021/05/10 05:05:28;;;;;;;6.57;2.83;;;;;;;;;;1488865;39;20029;-64
2021/05/10 05:06:29;;;;;;;4.47;2.80;;;;;;;;;;1489045;39;20032;-64
2021/05/10 05:07:30;;;;;;;5.38;2.85;;;;;;;;;;1489015;39;20035;-64
2021/05/10 05:08:31;;;;;;;6.90;3.08;;;;;;;;;;1489053;39;20028;-64
2021/05/10 05:09:32;;;;;;;3.22;2.47;;;;;;;;;;1489020;39;20031;-65
2021/05/10 05:10:33;;;;;;;5.82;3.00;;;;;;;;;;1488861;39;20032;-64
2021/05/10 05:11:34;;;;;;;6.05;2.60;;;;;;;;;;1488778;39;20035;-65
2021/05/10 05:12:37;;;;;;;7.82;2.70;;;;;;;;;;1488928;39;20399;-65
2021/05/10 05:13:39;;;;;;;5.68;2.90;;;;;;;;;;1489058;39;20020;-64
2021/05/10 05:14:41;;;;;;;4.28;2.45;;;;;;;;;;1488831;39;20064;-65
2021/05/10 05:15:42;;;;;;;4.20;2.67;;;;;;;;;;1488871;39;20028;-64
2021/05/10 05:16:43;;;;;;;7.32;3.03;;;;;;;;;;1489024;39;20032;-64
2021/05/10 05:17:44;;;;;;;4.32;3.03;;;;;;;;;;1489046;39;20036;-64
2021/05/10 05:18:46;;;;;;;4.43;2.67;;;;;;;;;;1488843;39;20109;-64
2021/05/10 05:19:46;;;;;;;4.25;2.80;;;;;;;;;;1489018;39;20024;-64
2021/05/10 05:20:48;;;;;;;4.80;2.60;;;;;;;;;;1488894;39;20399;-64
2021/05/10 05:21:50;;;;;;;6.35;2.47;;;;;;;;;;1488936;39;20133;-64
2021/05/10 05:22:52;;;;;;;6.00;2.40;;;;;;;;;;1488990;39;20028;-64
2021/05/10 05:23:52;;;;;;;5.05;3.03;;;;;;;;;;1488800;39;20135;-65
2021/05/10 05:24:56;;;;;;;4.45;2.47;;;;;;;;;;1489050;39;20477;-64
2021/05/10 05:25:58;;;;;;;5.63;2.50;;;;;;;;;;1488829;39;20035;-64
2021/05/10 05:27:00;;;;;;;7.15;3.00;;;;;;;;;;1488818;39;20036;-64
2021/05/10 05:28:00;;;;;;;5.45;3.05;;;;;;;;;;1521445;22;20020;-62
2021/05/10 05:29:02;;;;;;;5.80;3.25;;;;;;;;;;1476347;40;20293;-61
2021/05/10 05:30:05;;;;;;;3.60;2.60;;;;;;;;;;1476352;40;20388;-60
2021/05/10 05:31:06;;;;;;;7.97;2.90;;;;;;;;;;1476389;40;20050;-61
2021/05/10 05:32:07;;;;;;;4.15;2.67;;;;;;;;;;1476383;40;20036;-61
2021/05/10 05:33:09;;;;;;;5.05;2.90;;;;;;;;;;1476489;40;20037;-61
2021/05/10 05:34:09;;;;;;;5.90;2.80;;;;;;;;;;1476500;40;20026;-61
2021/05/10 05:35:12;;;;;;;7.45;2.90;;;;;;;;;;1476275;40;20029;-62
2021/05/10 05:36:13;;;;;;;6.50;3.08;;;;;;;;;;1476301;40;20028;-61
2021/05/10 05:37:14;;;;;;;3.80;2.58;;;;;;;;;;1476467;40;20037;-61
2021/05/10 05:38:16;;;;;;;6.60;3.00;;;;;;;;;;1476281;40;20038;-61
2021/05/10 05:39:17;;;;;;;7.93;3.03;;;;;;;;;;1476295;40;20029;-62
2021/05/10 05:40:19;;;;;;;5.85;2.90;;;;;;;;;;1476321;40;20052;-62
2021/05/10 05:41:20;;;;;;;5.40;2.70;;;;;;;;;;1476267;40;20041;-61
2021/05/10 05:42:21;;;;;;;4.28;2.70;;;;;;;;;;1476388;40;20077;-61
2021/05/10 05:43:22;;;;;;;4.88;2.45;;;;;;;;;;1476302;40;20405;-61
2021/05/10 05:44:23;;;;;;;5.20;2.80;;;;;;;;;;1476282;40;20022;-62
2021/05/10 05:45:25;;;;;;;6.15;2.53;;;;;;;;;;1476291;40;20033;-61
2021/05/10 05:46:28;;;;;;;8.95;3.00;;;;;;;;;;1476510;40;20029;-61
2021/05/10 05:47:29;;;;;;;4.25;2.75;;;;;;;;;;1476451;40;20038;-61
2021/05/10 05:48:30;;;;;;;7.38;2.38;;;;;;;;;;1476273;40;20383;-61
2021/05/10 05:49:34;;;;;;;4.38;2.55;;;;;;;;;;1476317;40;20037;-62
2021/05/10 05:50:37;;;;;;;4.85;2.05;;;;;;;;;;1476296;40;20050;-61
2021/05/10 05:51:38;;;;;;;7.18;2.45;;;;;;;;;;1476440;40;20034;-60
2021/05/10 05:52:39;;;;;;;4.95;2.60;;;;;;;;;;1476231;40;20030;-61
2021/05/10 05:53:40;;;;;;;6.13;2.85;;;;;;;;;;1476495;40;20029;-61
2021/05/10 05:54:42;;;;;;;5.45;2.78;;;;;;;;;;1476286;40;20379;-61
2021/05/10 05:55:43;;;;;;;7.57;3.00;;;;;;;;;;1476346;40;20052;-62
2021/05/10 05:56:45;;;;;;;6.72;3.20;;;;;;;;;;1476447;40;20038;-62
2021/05/10 05:57:46;;;;;;;5.30;2.42;;;;;;;;;;1476398;40;20030;-61
2021/05/10 05:58:49;;;;;;;5.80;2.33;;;;;;;;;;1476283;40;20030;-62
2021/05/10 05:59:49;;;;;;;5.40;2.20;;;;;;;;;;1476414;40;20026;-62
2021/05/10 06:00:53;;;;;;;4.32;2.20;;;;;;;;;;1476330;40;20069;-61
2021/05/10 06:01:54;;;;;;;6.47;2.42;;;;;;;;;;1476294;40;20038;-62
2021/05/10 06:02:55;;;;;;;4.28;2.40;;;;;;;;;;1476477;40;20061;-62
2021/05/10 06:03:56;;;;;;;6.28;2.80;;;;;;;;;;1476508;40;20036;-62
2021/05/10 06:04:58;;;;;;;5.70;2.30;;;;;;;;;;1476363;40;20037;-61
2021/05/10 06:05:58;;;;;;;4.38;2.60;;;;;;;;;;1476222;40;20034;-61
2021/05/10 06:07:00;;;;;;;7.38;2.83;;;;;;;;;;1476263;40;20040;-61
2021/05/10 06:08:00;;;;;;;4.60;2.50;;;;;;;;;;1476186;40;20041;-62
2021/05/10 06:09:06;;;;;;;4.60;2.40;;;;;;;;;;1475820;40;20033;-62
2021/05/10 06:10:08;;;;;;;3.85;2.00;;;;;;;;;;1476249;40;20160;-63
2021/05/10 06:11:10;;;;;;;4.80;2.40;;;;;;;;;;1476403;40;20037;-61
2021/05/10 06:12:12;;;;;;;5.63;2.47;;;;;;;;;;1476241;40;20390;-61
2021/05/10 06:13:14;;;;;;;6.28;2.42;;;;;;;;;;1476239;40;20286;-60
2021/05/10 06:14:15;;;;;;;6.03;2.53;;;;;;;;;;1476255;40;20030;-62
2021/05/10 06:15:17;;;;;;;5.28;2.60;;;;;;;;;;1476424;40;20034;-63